Latest Weather Observations for Cloncurry

IDQ60801

Issued at 6:42 pm EST Thursday 3 September 2026 (issued every 10 minutes, with the page automatically refreshed every 10 minutes)

About weather observations | Map of weather stations | Latest weather observations for QLD | Other Formats
Station Details ID: 029141 Name: CLONCURRY AIRPORT Lat: -20.67 Lon: 140.50 Height: 186.0 m
Data from the previous 72 hours. | See also: Recent months at Cloncurry
Date/Time
EST
Temp
°C
App
Temp
°C
Dew
Point
°C
Rel
Hum
%
Delta-T
°C
Wind Press
QNH
hPa
Press
MSL
hPa
Rain since
9am
mm
Dir  Spd
km/h
Gust
km/h
Spd
kts
Gust
kts
03/06:30pm 29.7 26.4 4.4 20 13.1 ENE 11 13 6 7 1016.8 1015.9 0.0
03/06:00pm 31.4 27.3 4.2 18 14.2 ENE 15 20 8 11 1016.6 1015.7 0.0
03/05:30pm 32.1 27.6 4.0 17 14.7 E 17 24 9 13 1016.5 1015.6 0.0
03/05:00pm 32.8 29.1 4.6 17 14.9 E 13 22 7 12 1016.5 1015.6 0.0
03/04:30pm 32.6 29.7 4.4 17 14.9 ESE 9 19 5 10 1016.5 1015.6 0.0
03/04:00pm 32.5 28.4 4.3 17 14.8 ESE 15 26 8 14 1016.7 1015.8 0.0
03/03:30pm 32.8 28.4 4.6 17 14.9 E 17 28 9 15 1016.9 1016.0 0.0
03/03:00pm 32.6 28.3 3.5 16 15.1 NE 15 22 8 12 1017.4 1016.5 0.0
03/02:30pm 32.9 28.3 3.8 16 15.2 ESE 17 24 9 13 1017.8 1016.9 0.0
03/02:00pm 32.3 28.2 4.2 17 14.7 E 15 28 8 15 1018.3 1017.4 0.0
03/01:30pm 32.1 27.0 3.1 16 14.9 NNE 19 32 10 17 1018.6 1017.7 0.0
03/01:00pm 32.9 28.7 5.5 18 14.7 NE 17 33 9 18 1019.3 1018.3 0.0
03/12:30pm 31.3 27.8 7.1 22 13.2 ENE 15 28 8 15 1019.8 1018.9 0.0
03/12:00pm 31.5 27.9 8.5 24 12.8 NNE 17 24 9 13 1020.4 1019.5 0.0
03/11:30am 30.1 26.7 9.1 27 11.8 NE 17 26 9 14 1021.0 1020.1 0.0
03/11:00am 29.1 25.8 8.2 27 11.5 NE 15 24 8 13 1021.5 1020.6 0.0
03/10:30am 27.0 23.8 6.9 28 10.7 ENE 13 22 7 12 1021.9 1021.0 0.0
03/10:00am 26.0 22.7 6.6 29 10.2 NNE 13 19 7 10 1021.9 1021.0 0.0
03/09:30am 25.3 22.0 6.5 30 9.8 NE 13 19 7 10 1021.8 1020.9 0.0
03/09:00am 23.9 19.8 6.2 32 9.1 NE 17 22 9 12 1021.7 1020.8 0.0
03/08:30am 23.2 19.0 5.6 32 9.0 ENE 17 20 9 11 1021.4 1020.5 0.0
03/08:00am 22.3 18.4 5.3 33 8.5 ENE 15 19 8 10 1020.9 1020.0 0.0
03/07:30am 17.5 15.2 7.3 51 5.2 SE 9 11 5 6 1020.4 1019.5 0.0
03/07:00am 15.0 12.9 6.6 57 4.1 ESE 7 9 4 5 1019.8 1018.9 0.0
03/06:30am 14.9 13.1 7.0 59 3.9 SSE 6 9 3 5 1019.6 1018.7 0.0
03/06:00am 14.3 12.2 6.6 60 3.7 SE 7 9 4 5 1019.2 1018.2 0.0
03/05:30am 14.0 11.1 6.6 61 3.6 SSE 11 13 6 7 1018.7 1017.8 0.0
03/05:00am 14.7 11.9 6.8 59 3.9 S 11 11 6 6 1018.5 1017.6 0.0
03/04:30am 15.1 12.3 6.9 58 4.1 SSW 11 13 6 7 1018.3 1017.4 0.0
03/04:00am 15.2 12.9 7.3 59 3.9 SSW 9 13 5 7 1018.1 1017.2 0.0
03/03:30am 16.1 14.1 7.3 56 4.4 S 7 11 4 6 1018.2 1017.3 0.0
03/03:00am 16.3 14.5 7.8 57 4.3 S 7 9 4 5 1018.0 1017.1 0.0
03/02:30am 16.5 14.3 8.0 57 4.3 S 9 11 5 6 1018.1 1017.2 0.0
03/02:00am 16.9 14.9 7.3 53 4.8 S 7 9 4 5 1018.1 1017.2 0.0
03/01:30am 17.7 15.9 8.0 53 5.0 S 7 9 4 5 1018.2 1017.3 0.0
03/01:00am 17.4 15.7 8.3 55 4.7 S 7 9 4 5 1018.3 1017.4 0.0
03/12:30am 17.7 17.4 8.6 55 4.7 CALM 0 0 0 0 1018.5 1017.6 0.0
03/12:00am 17.9 17.5 8.2 53 5.0 CALM 0 0 0 0 1018.6 1017.7 0.0
 
Date/Time
EST
Temp
°C
App
Temp
°C
Dew
Point
°C
Rel
Hum
%
Delta-T
°C
Wind Press
QNH
hPa
Press
MSL
hPa
Rain since
9am
mm
Dir  Spd
km/h
Gust
km/h
Spd
kts
Gust
kts
02/11:30pm 17.9 17.2 7.0 49 5.5 CALM 0 0 0 0 1018.7 1017.8 0.0
02/11:00pm 18.8 17.9 6.0 43 6.4 CALM 0 4 0 2 1018.8 1017.9 0.0
02/10:30pm 19.9 17.4 6.6 42 6.7 SSW 9 11 5 6 1018.8 1017.9 0.0
02/10:00pm 19.8 18.9 6.2 41 6.8 CALM 0 0 0 0 1018.8 1017.9 0.0
02/09:30pm 21.7 19.7 6.4 37 7.8 ESE 6 9 3 5 1018.6 1017.7 0.0
02/09:00pm 23.1 20.5 6.0 33 8.7 ESE 9 9 5 5 1018.4 1017.5 0.0
02/08:30pm 24.0 21.4 6.3 32 9.2 ESE 9 11 5 6 1018.1 1017.2 0.0
02/08:00pm 24.6 22.0 5.9 30 9.6 ESE 9 9 5 5 1017.7 1016.8 0.0
02/07:30pm 26.1 23.0 5.7 27 10.6 ESE 11 13 6 7 1017.4 1016.5 0.0
02/07:00pm 27.8 25.1 5.4 24 11.7 ESE 9 11 5 6 1017.0 1016.1 0.0
02/06:30pm 29.4 25.9 5.5 22 12.6 ESE 13 17 7 9 1016.8 1015.9 0.0
02/06:00pm 30.8 27.4 6.0 21 13.3 ENE 13 17 7 9 1016.6 1015.7 0.0
02/05:30pm 31.3 27.7 4.9 19 13.9 E 13 19 7 10 1016.4 1015.5 0.0
02/05:00pm 31.9 29.0 4.6 18 14.4 E 9 13 5 7 1016.3 1015.4 0.0
02/04:30pm 31.9 29.4 4.6 18 14.4 ENE 7 13 4 7 1016.3 1015.4 0.0
02/04:00pm 32.2 28.4 4.1 17 14.7 ENE 13 20 7 11 1016.4 1015.5 0.0
02/03:30pm 31.8 28.7 3.8 17 14.5 E 9 22 5 12 1016.6 1015.7 0.0
02/03:00pm 31.5 28.3 5.1 19 14.0 E 11 22 6 12 1016.9 1016.0 0.0
02/02:30pm 32.2 29.3 6.4 20 14.0 N 11 22 6 12 1017.4 1016.5 0.0
02/02:00pm 30.5 28.1 7.0 23 12.8 N 9 17 5 9 1018.0 1017.1 0.0
02/01:30pm 30.0 27.0 7.8 25 12.2 E 13 24 7 13 1018.6 1017.7 0.0
02/01:00pm 29.7 27.3 8.7 27 11.7 E 11 17 6 9 1019.4 1018.4 0.0
02/12:30pm 29.4 27.1 9.0 28 11.4 SE 11 19 6 10 1020.1 1019.2 0.0
02/12:00pm 28.1 26.2 8.9 30 10.6 ESE 9 15 5 8 1021.0 1020.1 0.0
02/11:30am 27.5 25.3 9.3 32 10.1 NNW 11 20 6 11 1021.6 1020.7 0.0
02/11:00am 26.8 24.0 10.1 35 9.4 N 15 22 8 12 1022.1 1021.2 0.0
02/10:30am 26.6 23.6 10.7 37 9.0 N 17 24 9 13 1022.4 1021.5 0.0
02/10:00am 25.5 22.5 10.5 39 8.4 N 17 28 9 15 1022.7 1021.8 0.0
02/09:30am 24.5 21.1 9.3 38 8.3 N 17 26 9 14 1023.0 1022.1 0.0
02/09:00am 23.4 20.9 8.3 38 8.0 N 11 19 6 10 1022.8 1021.9 0.0
02/08:30am 21.7 19.5 6.0 36 8.0 NE 7 11 4 6 1022.4 1021.5 0.0
02/08:00am 20.0 17.3 5.6 39 7.1 ENE 9 13 5 7 1022.1 1021.2 0.0
02/07:30am 16.3 15.4 5.9 50 5.1 CALM 0 0 0 0 1021.8 1020.9 0.0
02/07:00am 17.2 14.7 4.9 44 5.9 ENE 7 9 4 5 1021.4 1020.5 0.0
02/06:30am 15.0 12.9 3.8 47 5.2 ESE 4 9 2 5 1021.0 1020.1 0.0
02/06:00am 17.1 14.0 3.8 41 6.2 SE 9 11 5 6 1020.4 1019.5 0.0
02/05:30am 17.4 14.7 3.7 40 6.4 SE 7 9 4 5 1020.2 1019.3 0.0
02/05:00am 16.9 14.4 3.9 42 6.1 SE 6 7 3 4 1020.0 1019.1 0.0
02/04:30am 18.7 15.6 3.7 37 7.1 ESE 9 13 5 7 1020.0 1019.1 0.0
02/04:00am 18.8 15.8 4.2 38 7.0 ESE 9 13 5 7 1020.0 1019.1 0.0
02/03:30am 18.1 15.3 5.0 42 6.4 SE 9 11 5 6 1020.0 1019.1 0.0
02/03:00am 18.8 16.1 5.6 42 6.5 ESE 9 13 5 7 1020.1 1019.2 0.0
02/02:30am 16.2 13.5 7.4 56 4.4 SE 11 15 6 8 1020.0 1019.1 0.0
02/02:00am 17.1 14.9 7.7 54 4.8 SSE 9 11 5 6 1020.1 1019.2 0.0
02/01:30am 17.0 14.4 7.9 55 4.6 SSE 11 11 6 6 1020.2 1019.3 0.0
02/01:00am 17.7 15.5 8.0 53 5.0 SSE 9 11 5 6 1020.3 1019.4 0.0
02/12:30am 17.8 15.6 7.8 52 5.1 SSE 9 11 5 6 1020.4 1019.5 0.0
02/12:00am 17.8 15.1 7.5 51 5.2 S 11 13 6 7 1020.4 1019.5 0.0
 
Date/Time
EST
Temp
°C
App
Temp
°C
Dew
Point
°C
Rel
Hum
%
Delta-T
°C
Wind Press
QNH
hPa
Press
MSL
hPa
Rain since
9am
mm
Dir  Spd
km/h
Gust
km/h
Spd
kts
Gust
kts
01/11:30pm 18.7 16.9 7.8 49 5.6 S 7 9 4 5 1020.4 1019.5 0.0
01/11:00pm 19.4 17.8 7.8 47 6.0 SSE 6 7 3 4 1020.4 1019.5 0.0
01/10:30pm 20.6 18.8 7.9 44 6.6 SSE 7 9 4 5 1020.4 1019.5 0.0
01/10:00pm 20.0 18.7 7.7 45 6.4 SSW 4 9 2 5 1020.4 1019.5 0.0
01/09:30pm 20.6 19.0 7.9 44 6.6 ESE 6 6 3 3 1020.2 1019.3 0.0
01/09:00pm 20.8 18.6 6.4 39 7.3 ESE 7 7 4 4 1020.1 1019.2 0.0
01/08:30pm 21.4 19.2 6.1 37 7.8 ESE 7 9 4 5 1019.9 1019.0 0.0
01/08:00pm 23.0 20.9 6.7 35 8.4 ESE 7 9 4 5 1019.7 1018.8 0.0
01/07:30pm 24.9 22.7 6.1 30 9.8 ESE 7 9 4 5 1019.4 1018.4 0.0
01/07:00pm 26.9 24.5 6.9 28 10.6 ESE 9 11 5 6 1019.0 1018.1 0.0
01/06:30pm 28.3 25.9 7.0 26 11.4 ESE 9 13 5 7 1018.8 1017.9 0.0
01/06:00pm 29.3 26.8 6.7 24 12.1 ESE 9 15 5 8 1018.8 1017.9 0.0
01/05:30pm 29.8 26.3 7.1 24 12.3 ESE 15 22 8 12 1018.6 1017.7 0.0
01/05:00pm 30.0 28.0 7.2 24 12.4 SSW 7 11 4 6 1018.6 1017.7 0.0
01/04:30pm 30.3 26.4 6.9 23 12.7 E 17 22 9 12 1018.7 1017.8 0.0
01/04:00pm 30.0 27.3 7.2 24 12.4 E 11 19 6 10 1018.7 1017.8 0.0
01/03:30pm 29.8 27.4 7.1 24 12.3 N 9 17 5 9 1018.8 1017.9 0.0
01/03:00pm 29.8 27.2 7.7 25 12.1 NE 11 20 6 11 1019.3 1018.3 0.0
01/02:30pm 29.4 27.1 7.3 25 12.0 NW 9 17 5 9 1019.8 1018.9 0.0
01/02:00pm 30.1 26.9 8.5 26 12.0 N 15 24 8 13 1020.5 1019.6 0.0
01/01:30pm 28.9 25.7 8.6 28 11.2 ENE 15 24 8 13 1021.1 1020.2 0.0
01/01:00pm 28.6 25.4 8.3 28 11.1 NNE 15 26 8 14 1021.6 1020.7 0.0
01/12:30pm 28.3 25.6 9.1 30 10.7 ENE 13 24 7 13 1022.3 1021.4 0.0
01/12:00pm 27.9 26.0 10.6 34 9.8 ENE 11 19 6 10 1022.9 1022.0 0.0
01/11:30am 26.7 23.5 10.0 35 9.4 NE 17 30 9 16 1023.6 1022.7 0.0
01/11:00am 26.2 24.0 10.8 38 8.7 NE 13 22 7 12 1023.9 1023.0 0.0
01/10:30am 25.5 22.5 10.5 39 8.4 NE 17 30 9 16 1024.1 1023.2 0.0
01/10:00am 24.9 21.4 10.8 41 7.9 NE 20 30 11 16 1024.2 1023.4 0.0
01/09:30am 23.6 20.1 11.0 45 7.1 NE 20 30 11 16 1024.0 1023.5 0.0
01/09:00am 22.2 19.9 10.4 47 6.5 NE 13 19 7 10 1023.9 1023.4 0.0
01/08:30am 21.4 18.5 9.6 47 6.4 E 15 19 8 10 1023.7 1023.2 0.0
01/08:00am 20.2 18.4 9.5 50 5.7 E 9 17 5 9 1023.3 1022.8 0.0
01/07:30am 17.9 16.2 8.2 53 5.0 SSE 7 9 4 5 1022.9 1022.4 0.0
01/07:00am 16.9 15.1 7.8 55 4.6 ESE 7 11 4 6 1022.6 1022.0 0.0
01/06:30am 17.5 14.5 7.8 53 5.0 E 13 15 7 8 1022.1 1021.5 0.0
01/06:00am 18.3 14.6 8.0 51 5.3 E 17 20 9 11 1021.7 1021.1 0.0
01/05:30am 18.7 14.4 7.8 49 5.6 E 20 24 11 13 1021.4 1020.8 0.0
01/05:00am 19.2 14.4 7.3 46 6.1 ESE 22 26 12 14 1021.1 1020.5 0.0
01/04:30am 19.7 14.2 7.4 45 6.3 ESE 26 37 14 20 1020.9 1020.3 0.0
01/04:00am 19.8 14.6 7.2 44 6.4 ESE 24 30 13 16 1020.9 1020.3 0.0
01/03:30am 20.3 15.0 7.0 42 6.8 ESE 24 30 13 16 1020.9 1020.3 0.0
01/03:00am 19.9 15.3 6.6 42 6.7 ESE 20 26 11 14 1020.9 1020.3 0.0
01/02:30am 20.1 16.1 6.5 41 6.9 ESE 17 22 9 12 1021.1 1020.5 0.0
01/02:00am 20.6 16.0 6.5 40 7.1 ESE 20 24 11 13 1021.1 1020.5 0.0
01/01:30am 20.7 15.6 5.9 38 7.4 ESE 22 28 12 15 1021.4 1020.8 0.0
01/01:00am 20.7 16.1 5.5 37 7.6 ESE 19 22 10 12 1021.5 1020.9 0.0
01/12:30am 20.3 16.4 5.5 38 7.4 ESE 15 19 8 10 1021.5 1020.9 0.0
01/12:00am 20.6 16.7 5.4 37 7.5 ESE 15 17 8 9 1021.6 1021.0 0.0
 
Date/Time
EST
Temp
°C
App
Temp
°C
Dew
Point
°C
Rel
Hum
%
Delta-T
°C
Wind Press
QNH
hPa
Press
MSL
hPa
Rain since
9am
mm
Dir  Spd
km/h
Gust
km/h
Spd
kts
Gust
kts
31/11:30pm 19.6 16.7 4.9 38 7.2 ESE 9 15 5 8 1021.7 1021.1 0.0
31/11:00pm 19.4 16.8 4.4 37 7.2 SE 7 11 4 6 1021.8 1021.2 0.0
31/10:30pm 20.1 16.7 3.8 34 7.8 SE 11 13 6 7 1021.9 1021.3 0.0
31/10:00pm 20.0 16.6 4.1 35 7.7 ESE 11 13 6 7 1021.7 1021.1 0.0
31/09:30pm 20.3 17.4 4.4 35 7.8 ESE 9 11 5 6 1021.6 1021.0 0.0
31/09:00pm 20.6 17.6 4.2 34 8.0 ESE 9 11 5 6 1021.6 1021.0 0.0
31/08:30pm 22.0 18.6 4.1 31 8.8 SE 11 13 6 7 1021.5 1020.9 0.0
31/08:00pm 23.1 19.7 4.1 29 9.4 SE 11 15 6 8 1021.2 1020.6 0.0
31/07:30pm 24.6 20.9 4.4 27 10.1 SE 13 15 7 8 1020.9 1020.3 0.0
31/07:00pm 25.9 22.2 4.4 25 10.9 SE 13 17 7 9 1020.7 1020.1 0.0

Other formats

Comma delimited format used in spreadsheet applications
http://www.bom.gov.au/fwo/IDQ60801/IDQ60801.94335.axf

JavaScript Object Notation format (JSON) in row-major order
http://www.bom.gov.au/fwo/IDQ60801/IDQ60801.94335.json

Data quality

Most of these data are generated automatically and are frequently updated. Quality checks on data are not normally performed. It is possible for incorrect values to appear. Refer to information at About Latest Weather Observations and please check the disclaimer before using these data.